Time;durP1;ratioP1;P1;durP2;ratioP2;P2;SDS_P1;SDS_P2;PMS_P1;PMS_P2;Temp;Humidity;BMP_temperature;BMP_pressure;BME280_temperature;BME280_humidity;BME280_pressure;Samples;Min_cycle;Max_cycle;Signal;HPM_P1;HPM_P2
2022/06/21 00:01:05;;;;;;;;;;;;;;;24.71;29.02;99701.88;5095424;28;19961;-70
2022/06/21 00:03:31;;;;;;;;;;;;;;;24.71;29.06;99704.59;5095255;28;19981;-69
2022/06/21 00:05:56;;;;;;;;;;;;;;;24.70;28.98;99697.53;5096035;28;19966;-69
2022/06/21 00:08:23;;;;;;;;;;;;;;;24.69;28.99;99698.63;5095660;28;19923;-69
2022/06/21 00:10:48;;;;;;;;;;;;;;;24.68;29.10;99689.63;5103999;27;19973;-68
2022/06/21 00:13:18;;;;;;;;;;;;;;;24.69;29.12;99690.44;5136577;27;20367;-68
2022/06/21 00:15:43;;;;;;;;;;;;;;;24.69;28.80;99693.16;5136333;27;19928;-69
2022/06/21 00:18:10;;;;;;;;;;;;;;;24.68;28.83;99699.75;5117728;27;19915;-69
2022/06/21 00:20:35;;;;;;;;;;;;;;;24.67;28.80;99692.66;5136376;27;20327;-69
2022/06/21 00:23:00;;;;;;;;;;;;;;;24.68;28.74;99694.28;5117402;27;19944;-69
2022/06/21 00:25:26;;;;;;;;;;;;;;;24.67;28.78;99698.13;5135738;27;19915;-69
2022/06/21 00:27:51;;;;;;;;;;;;;;;24.67;28.61;99687.19;5135809;27;19916;-69
2022/06/21 00:30:17;;;;;;;;;;;;;;;24.66;28.66;99691.03;5135767;27;20026;-69
2022/06/21 00:32:42;;;;;;;;;;;;;;;24.66;28.86;99689.09;5135758;27;19960;-69
2022/06/21 00:35:11;;;;;;;;;;;;;;;24.67;28.77;99687.19;5135868;27;19915;-69
2022/06/21 00:37:36;;;;;;;;;;;;;;;24.67;28.50;99687.19;5135614;27;19919;-69
2022/06/21 00:40:05;;;;;;;;;;;;;;;24.66;28.44;99691.03;5135371;27;19945;-69
2022/06/21 00:42:31;;;;;;;;;;;;;;;24.67;28.46;99689.94;5117345;27;19919;-69
2022/06/21 00:45:06;;;;;;;;;;;;;;;24.65;28.37;99687.50;5117084;27;20352;-69
2022/06/21 00:47:44;;;;;;;;;;;;;;;24.65;28.24;99687.50;5135667;27;19916;-69
2022/06/21 00:50:11;;;;;;;;;;;;;;;24.64;28.12;99688.59;5116995;27;20009;-69
2022/06/21 00:52:41;;;;;;;;;;;;;;;24.65;28.48;99684.78;5117263;27;20002;-68
2022/06/21 00:55:10;;;;;;;;;;;;;;;24.65;28.15;99683.97;5135623;27;19961;-68
2022/06/21 00:57:51;;;;;;;;;;;;;;;24.64;28.22;99685.06;5135569;27;19915;-68
2022/06/21 01:00:22;;;;;;;;;;;;;;;24.65;28.20;99683.97;5135363;27;20015;-68
2022/06/21 01:02:47;;;;;;;;;;;;;;;24.64;28.13;99674.13;5135393;27;19957;-69
2022/06/21 01:05:13;;;;;;;;;;;;;;;24.63;28.04;99675.22;5117047;27;20356;-69
2022/06/21 01:07:38;;;;;;;;;;;;;;;24.64;28.19;99676.88;5135910;27;20242;-69
2022/06/21 01:10:07;;;;;;;;;;;;;;;24.64;28.17;99685.06;5135688;27;19916;-68
2022/06/21 01:12:44;;;;;;;;;;;;;;;24.64;27.93;99674.13;5099289;28;20369;-68
2022/06/21 01:15:12;;;;;;;;;;;;;;;24.63;27.73;99684.25;5114700;28;19932;-68
2022/06/21 01:17:37;;;;;;;;;;;;;;;24.63;27.74;99686.16;5115436;28;20047;-68
2022/06/21 01:20:07;;;;;;;;;;;;;;;24.63;28.04;99680.69;5115040;28;20385;-68
2022/06/21 01:22:41;;;;;;;;;;;;;;;24.63;27.71;99680.69;5114865;28;19916;-68
2022/06/21 01:25:09;;;;;;;;;;;;;;;24.61;27.92;99681.03;5114956;28;20000;-68
2022/06/21 01:27:35;;;;;;;;;;;;;;;24.61;27.82;99683.75;5115116;28;19938;-68
2022/06/21 01:30:00;;;;;;;;;;;;;;;24.63;27.60;99686.16;5115035;28;20334;-68
2022/06/21 01:32:25;;;;;;;;;;;;;;;24.62;27.73;99679.09;5097775;28;19942;-68
2022/06/21 01:34:51;;;;;;;;;;;;;;;24.61;27.81;99680.19;5096839;28;19946;-68
2022/06/21 01:37:19;;;;;;;;;;;;;;;24.62;27.61;99679.09;5114594;28;19915;-69
2022/06/21 01:40:04;;;;;;;;;;;;;;;24.61;27.75;99682.91;5114663;28;19919;-68
2022/06/21 01:42:30;;;;;;;;;;;;;;;24.60;27.63;99686.78;5113648;28;19951;-68
2022/06/21 01:44:57;;;;;;;;;;;;;;;24.61;27.60;99683.75;5113974;28;19923;-68
2022/06/21 01:47:22;;;;;;;;;;;;;;;24.61;27.48;99688.38;5114425;28;19923;-68
2022/06/21 01:49:50;;;;;;;;;;;;;;;24.62;27.61;99685.34;5096113;28;19933;-70
2022/06/21 01:52:19;;;;;;;;;;;;;;;24.61;27.76;99683.75;5114605;28;19915;-69
2022/06/21 01:54:45;;;;;;;;;;;;;;;24.61;27.69;99683.75;5113852;28;19923;-69
2022/06/21 01:57:11;;;;;;;;;;;;;;;24.63;27.62;99686.16;5095581;28;20011;-69
2022/06/21 01:59:38;;;;;;;;;;;;;;;24.62;27.74;99679.09;5096029;28;20008;-69
2022/06/21 02:02:08;;;;;;;;;;;;;;;24.61;27.78;99677.47;5114217;28;19920;-69
2022/06/21 02:04:49;;;;;;;;;;;;;;;24.62;27.76;99681.81;5095767;28;19923;-69
2022/06/21 02:07:17;;;;;;;;;;;;;;;24.62;27.87;99690.03;5096085;28;19923;-69
2022/06/21 02:09:44;;;;;;;;;;;;;;;24.61;28.16;99682.91;5114035;28;19923;-69
2022/06/21 02:12:10;;;;;;;;;;;;;;;24.60;27.96;99687.59;5127223;28;19985;-69
2022/06/21 02:14:37;;;;;;;;;;;;;;;24.60;27.99;99682.13;5115805;28;19951;-69
2022/06/21 02:17:13;;;;;;;;;;;;;;;24.61;28.07;99680.19;5115950;28;20422;-69
2022/06/21 02:19:42;;;;;;;;;;;;;;;24.61;28.32;99672.00;5115893;28;19980;-69
2022/06/21 02:22:13;;;;;;;;;;;;;;;24.61;28.21;99672.81;5134147;28;19938;-69
2022/06/21 02:24:38;;;;;;;;;;;;;;;24.60;28.17;99668.47;5116402;28;19943;-69
2022/06/21 02:27:04;;;;;;;;;;;;;;;24.60;28.19;99676.66;5134491;28;20296;-69
2022/06/21 02:29:29;;;;;;;;;;;;;;;24.61;28.45;99672.00;5115753;28;19916;-69
2022/06/21 02:31:56;;;;;;;;;;;;;;;24.60;28.47;99668.47;5134019;28;19954;-69
2022/06/21 02:34:22;;;;;;;;;;;;;;;24.61;28.45;99666.53;5134372;28;19998;-69
2022/06/21 02:36:52;;;;;;;;;;;;;;;24.62;28.32;99679.09;5116045;28;19923;-69
2022/06/21 02:39:18;;;;;;;;;;;;;;;24.61;28.33;99672.81;5134107;28;19919;-70
2022/06/21 02:41:44;;;;;;;;;;;;;;;24.60;28.64;99681.31;5115843;28;20015;-69
2022/06/21 02:44:23;;;;;;;;;;;;;;;24.62;28.67;99687.28;5134410;28;20343;-70
2022/06/21 02:46:49;;;;;;;;;;;;;;;24.62;28.66;99684.56;5134185;28;20341;-69
2022/06/21 02:49:19;;;;;;;;;;;;;;;24.62;28.73;99679.09;5135791;27;20013;-69
2022/06/21 02:51:47;;;;;;;;;;;;;;;24.62;28.95;99681.81;5138100;27;19991;-69
2022/06/21 02:54:17;;;;;;;;;;;;;;;24.63;28.98;99686.16;5119759;27;19923;-69
2022/06/21 02:56:46;;;;;;;;;;;;;;;24.61;28.89;99674.72;5137511;27;19915;-69
2022/06/21 02:59:11;;;;;;;;;;;;;;;24.61;29.00;99678.28;5137905;27;20011;-69
2022/06/21 03:01:38;;;;;;;;;;;;;;;24.65;28.89;99673.03;5137834;27;19927;-69
2022/06/21 03:04:03;;;;;;;;;;;;;;;24.68;28.83;99677.88;5137665;27;19915;-69
2022/06/21 03:06:29;;;;;;;;;;;;;;;24.72;28.86;99677.00;5137784;27;20349;-69
2022/06/21 03:08:55;;;;;;;;;;;;;;;24.77;28.70;99680.75;5119112;27;20380;-69
2022/06/21 03:11:21;;;;;;;;;;;;;;;24.81;28.81;99673.59;5113162;28;19924;-70
2022/06/21 03:13:47;;;;;;;;;;;;;;;24.85;28.65;99677.31;5098711;28;19916;-69
2022/06/21 03:16:13;;;;;;;;;;;;;;;24.90;28.78;99679.97;5116959;28;19969;-69
2022/06/21 03:18:39;;;;;;;;;;;;;;;24.93;28.74;99676.63;5098344;28;20350;-69
2022/06/21 03:21:09;;;;;;;;;;;;;;;25.00;28.75;99676.25;5098302;28;19919;-69
2022/06/21 03:23:36;;;;;;;;;;;;;;;25.02;28.88;99671.28;5098793;28;19976;-69
2022/06/21 03:26:01;;;;;;;;;;;;;;;25.07;28.71;99674.72;5098619;28;19920;-69
2022/06/21 03:28:28;;;;;;;;;;;;;;;25.12;28.84;99677.38;5098303;28;20294;-69
2022/06/21 03:31:12;;;;;;;;;;;;;;;25.17;29.00;99668.25;5116371;28;19916;-69
2022/06/21 03:33:39;;;;;;;;;;;;;;;25.19;29.08;99676.97;5116384;28;19915;-69
2022/06/21 03:36:05;;;;;;;;;;;;;;;25.21;28.86;99685.69;5098146;28;20455;-68
2022/06/21 03:38:30;;;;;;;;;;;;;;;25.20;29.31;99678.59;5116185;28;19920;-69
2022/06/21 03:43:46;;;;;;;;;;;;;;;25.29;29.10;99687.75;5116673;28;19931;-68
2022/06/21 03:46:12;;;;;;;;;;;;;;;25.30;29.14;99686.66;5098325;28;19920;-68
2022/06/21 03:48:39;;;;;;;;;;;;;;;25.34;29.07;99694.25;5098159;28;19916;-70
2022/06/21 03:51:18;;;;;;;;;;;;;;;25.35;29.30;99687.66;5097895;28;20423;-70
2022/06/21 03:53:56;;;;;;;;;;;;;;;25.42;29.24;99688.06;5116671;28;19923;-70
2022/06/21 03:56:26;;;;;;;;;;;;;;;25.42;29.31;99690.78;5116302;28;19923;-70
2022/06/21 03:58:51;;;;;;;;;;;;;;;25.41;29.43;99689.19;5098030;28;20014;-69
2022/06/21 04:01:19;;;;;;;;;;;;;;;25.46;29.45;99691.81;5115703;28;20403;-69
2022/06/21 04:03:46;;;;;;;;;;;;;;;25.46;29.74;99686.34;5098059;28;19943;-69
2022/06/21 04:06:19;;;;;;;;;;;;;;;25.46;29.74;99689.88;5116419;28;19923;-74
2022/06/21 04:08:46;;;;;;;;;;;;;;;25.47;29.90;99688.78;5098169;28;19923;-74
2022/06/21 04:11:22;;;;;;;;;;;;;;;25.49;29.75;99688.44;5101928;27;19919;-74
2022/06/21 04:13:53;;;;;;;;;;;;;;;25.53;29.81;99689.47;5118047;27;19915;-74
2022/06/21 04:16:21;;;;;;;;;;;;;;;25.58;29.86;99688.56;5136845;27;19922;-75
2022/06/21 04:18:48;;;;;;;;;;;;;;;25.54;30.12;99679.34;5118659;27;19943;-75
2022/06/21 04:21:23;;;;;;;;;;;;;;;25.55;30.01;99681.78;5136702;27;19919;-74
2022/06/21 04:23:50;;;;;;;;;;;;;;;25.56;30.23;99691.63;5136737;27;19938;-75
2022/06/21 04:26:17;;;;;;;;;;;;;;;25.56;30.21;99686.16;5136614;27;20010;-74
2022/06/21 04:29:02;;;;;;;;;;;;;;;25.58;30.30;99689.38;5118611;27;19947;-74
2022/06/21 04:31:30;;;;;;;;;;;;;;;25.60;30.38;99692.63;5118928;27;19928;-75
2022/06/21 04:34:03;;;;;;;;;;;;;;;25.61;30.49;99688.78;5136798;27;19919;-75
2022/06/21 04:36:44;;;;;;;;;;;;;;;25.64;30.44;99693.59;5136396;27;20373;-75
2022/06/21 04:39:35;;;;;;;;;;;;;;;25.64;30.61;99690.88;5118498;27;19923;-75
2022/06/21 04:42:01;;;;;;;;;;;;;;;25.67;30.62;99693.00;5073449;28;19952;-75
2022/06/21 04:44:52;;;;;;;;;;;;;;;25.71;30.41;99689.66;5073161;28;20440;-75
2022/06/21 04:47:32;;;;;;;;;;;;;;;25.67;30.47;99682.06;5033208;28;20399;-75
2022/06/21 04:49:59;;;;;;;;;;;;;;;25.68;30.59;99677.38;5033238;28;19940;-75
2022/06/21 04:52:35;;;;;;;;;;;;;;;25.71;30.30;99681.47;5016525;28;19917;-75
2022/06/21 04:55:00;;;;;;;;;;;;;;;25.72;30.34;99683.88;5016659;28;19917;-75
2022/06/21 04:57:27;;;;;;;;;;;;;;;25.74;30.31;99689.06;5032099;28;19917;-75
2022/06/21 04:59:53;;;;;;;;;;;;;;;25.75;30.16;99680.53;5016294;28;20415;-75
2022/06/21 05:02:33;;;;;;;;;;;;;;;25.76;30.25;99687.63;5032061;28;19957;-75
2022/06/21 05:05:06;;;;;;;;;;;;;;;25.77;29.99;99685.72;5015569;28;19967;-75
2022/06/21 05:07:32;;;;;;;;;;;;;;;25.78;29.85;99692.78;5032458;28;19943;-75
2022/06/21 05:09:57;;;;;;;;;;;;;;;25.82;29.91;99688.34;5015434;28;20372;-75
2022/06/21 05:12:31;;;;;;;;;;;;;;;25.84;29.90;99692.38;5031230;28;19927;-74
2022/06/21 05:15:01;;;;;;;;;;;;;;;25.85;29.93;99688.53;5015332;28;20364;-72
2022/06/21 05:17:26;;;;;;;;;;;;;;;25.89;29.96;99693.38;5015389;28;19966;-72
2022/06/21 05:19:53;;;;;;;;;;;;;;;25.88;29.91;99692.56;5050222;28;19917;-72
2022/06/21 05:22:32;;;;;;;;;;;;;;;25.91;30.02;99691.97;5051332;28;20035;-72
2022/06/21 05:24:58;;;;;;;;;;;;;;;25.86;29.88;99694.81;5087569;28;19916;-73
2022/06/21 05:27:23;;;;;;;;;;;;;;;25.92;29.86;99693.56;5114258;28;19915;-72
2022/06/21 05:29:48;;;;;;;;;;;;;;;25.96;29.92;99697.38;5114980;28;20307;-71
2022/06/21 05:32:18;;;;;;;;;;;;;;;25.95;29.77;99697.66;5114331;28;19916;-72
2022/06/21 05:34:44;;;;;;;;;;;;;;;25.96;29.90;99696.56;5114271;28;19986;-72
2022/06/21 05:37:15;;;;;;;;;;;;;;;25.99;30.15;99702.22;5096224;28;19947;-71
2022/06/21 05:39:44;;;;;;;;;;;;;;;26.02;30.13;99698.84;5098839;28;19923;-72
2022/06/21 05:42:11;;;;;;;;;;;;;;;26.05;29.86;99703.72;5097218;28;19923;-72
2022/06/21 05:44:43;;;;;;;;;;;;;;;26.08;30.06;99688.63;5096539;28;19989;-72
2022/06/21 05:47:17;;;;;;;;;;;;;;;26.08;29.88;99702.31;5114709;28;20326;-73
2022/06/21 05:49:42;;;;;;;;;;;;;;;26.11;29.90;99701.66;5096976;28;19915;-72
2022/06/21 05:52:18;;;;;;;;;;;;;;;26.16;29.96;99695.28;5114088;28;19916;-70
2022/06/21 05:54:45;;;;;;;;;;;;;;;26.14;29.87;99689.31;5114903;28;19923;-70
2022/06/21 05:57:11;;;;;;;;;;;;;;;26.12;29.89;99697.81;5114964;28;20002;-69
2022/06/21 05:59:36;;;;;;;;;;;;;;;26.15;29.70;99701.88;5096202;28;20278;-69
2022/06/21 06:02:07;;;;;;;;;;;;;;;26.18;30.01;99693.03;5114821;28;20010;-69
2022/06/21 06:04:33;;;;;;;;;;;;;;;26.23;29.65;99688.28;5114465;28;19944;-69
2022/06/21 06:06:58;;;;;;;;;;;;;;;26.24;29.53;99694.56;5113893;28;19961;-69
2022/06/21 06:09:25;;;;;;;;;;;;;;;26.23;29.81;99688.28;5096179;28;19923;-70
2022/06/21 06:11:58;;;;;;;;;;;;;;;26.28;29.72;99692.81;5121358;28;19947;-70
2022/06/21 06:14:23;;;;;;;;;;;;;;;26.32;29.64;99696.56;5116950;28;19922;-69
2022/06/21 06:16:50;;;;;;;;;;;;;;;26.28;29.42;99701.00;5116799;28;19915;-70
2022/06/21 06:19:20;;;;;;;;;;;;;;;26.34;29.49;99694.31;5116524;28;19922;-69
2022/06/21 06:21:50;;;;;;;;;;;;;;;26.39;29.15;99696.94;5116456;28;19938;-69
2022/06/21 06:24:26;;;;;;;;;;;;;;;26.37;29.18;99693.69;5119636;27;19922;-69
2022/06/21 06:26:54;;;;;;;;;;;;;;;26.42;28.90;99688.09;5138590;27;19923;-68
2022/06/21 06:29:19;;;;;;;;;;;;;;;26.54;28.49;99700.41;5120942;27;19964;-69
2022/06/21 06:31:52;;;;;;;;;;;;;;;26.65;28.10;99704.56;5102853;27;19915;-69
2022/06/21 06:34:23;;;;;;;;;;;;;;;26.76;27.86;99700.44;5140131;27;19948;-69
2022/06/21 06:36:49;;;;;;;;;;;;;;;26.86;27.44;99704.06;5139818;27;19999;-69
2022/06/21 06:39:17;;;;;;;;;;;;;;;26.82;27.43;99697.56;5116914;28;20337;-69
2022/06/21 06:41:51;;;;;;;;;;;;;;;26.85;27.44;99702.44;5117474;28;20437;-70
2022/06/21 06:44:17;;;;;;;;;;;;;;;26.86;27.13;99704.06;5117821;28;19923;-70
2022/06/21 06:46:43;;;;;;;;;;;;;;;26.91;27.04;99698.44;5117378;28;19916;-70
2022/06/21 06:49:25;;;;;;;;;;;;;;;27.08;26.59;99695.78;5117403;28;20010;-69
2022/06/21 06:51:51;;;;;;;;;;;;;;;26.93;26.68;99701.69;5115948;28;19969;-70
2022/06/21 06:54:35;;;;;;;;;;;;;;;27.09;26.29;99691.91;5117327;28;19919;-70
2022/06/21 06:57:12;;;;;;;;;;;;;;;26.97;26.69;99686.19;5117856;28;20013;-70
2022/06/21 06:59:38;;;;;;;;;;;;;;;27.02;26.27;99686.06;5117320;28;19916;-70
2022/06/21 07:02:15;;;;;;;;;;;;;;;27.03;26.22;99690.44;5116148;28;19953;-70
2022/06/21 07:04:42;;;;;;;;;;;;;;;27.05;26.31;99687.38;5117246;28;20015;-70
2022/06/21 07:07:09;;;;;;;;;;;;;;;27.13;26.42;99692.91;5117262;28;19942;-70
2022/06/21 07:10:02;;;;;;;;;;;;;;;27.22;26.03;99690.22;5116324;28;19998;-69
2022/06/21 07:12:28;;;;;;;;;;;;;;;27.14;26.10;99700.00;5102951;28;19916;-70
2022/06/21 07:14:53;;;;;;;;;;;;;;;27.15;26.22;99701.63;5096489;28;19916;-70
2022/06/21 07:17:21;;;;;;;;;;;;;;;27.17;25.99;99695.84;5078297;28;20106;-70
2022/06/21 07:19:47;;;;;;;;;;;;;;;27.21;25.77;99694.06;5097051;28;19923;-69
2022/06/21 07:25:40;;;;;;;9.68;4.03;;;;;;;25.33;28.58;99692.63;5071102;28;20367;-62
2022/06/21 07:28:29;;;;;;;10.30;4.53;;;;;;;24.80;29.42;99697.38;5069016;28;20078;-63
2022/06/21 07:30:56;;;;;;;9.07;4.90;;;;;;;24.72;29.30;99704.31;5069991;28;20056;-63
2022/06/21 07:33:37;;;;;;;10.68;4.55;;;;;;;24.73;29.31;99707.84;5052411;28;20029;-63
2022/06/21 07:36:10;;;;;;;7.20;4.28;;;;;;;24.78;29.14;99707.75;5053823;28;20025;-64
2022/06/21 07:38:58;;;;;;;8.88;5.05;;;;;;;24.79;29.04;99705.88;5051862;28;20112;-63
2022/06/21 07:41:37;;;;;;;9.25;4.85;;;;;;;24.81;28.71;99696.25;5069714;28;20036;-63
2022/06/21 07:44:08;;;;;;;11.38;5.30;;;;;;;24.83;28.86;99702.22;5068323;28;20108;-63
2022/06/21 07:46:50;;;;;;;14.38;6.82;;;;;;;24.87;28.76;99702.41;5068658;28;20024;-64
2022/06/21 07:49:24;;;;;;;11.93;5.25;;;;;;;24.85;28.68;99700.00;5069658;28;20372;-65
2022/06/21 07:51:52;;;;;;;11.00;5.95;;;;;;;24.89;28.63;99711.16;5069992;28;20124;-64
2022/06/21 07:54:35;;;;;;;11.10;4.97;;;;;;;24.93;28.65;99710.25;5068671;28;20039;-64
2022/06/21 07:57:22;;;;;;;20.55;8.23;;;;;;;24.93;28.49;99704.78;5070762;28;20474;-63
2022/06/21 07:59:54;;;;;;;16.65;8.07;;;;;;;24.93;28.63;99699.31;5069787;28;20036;-63
2022/06/21 08:08:38;;;;;;;16.48;7.68;;;;;;;24.97;28.53;99701.44;5067852;28;20593;-64
2022/06/21 08:11:12;;;;;;;32.22;12.00;;;;;;;24.94;28.48;99708.34;5065883;28;20124;-63
2022/06/21 08:13:40;;;;;;;;;;;;;;;25.02;28.34;99710.34;5072523;28;20039;-63
2022/06/21 08:16:34;;;;;;;31.60;12.10;;;;;;;25.01;28.26;99707.91;5088124;28;19908;-65
2022/06/21 08:19:08;;;;;;;;;;;;;;;25.05;27.93;99708.97;5047570;28;20180;-63
2022/06/21 08:21:59;;;;;;;24.95;10.60;;;;;;;25.03;27.80;99706.53;5047064;28;20327;-64
2022/06/21 08:24:42;;;;;;;25.77;10.38;;;;;;;25.00;27.82;99703.59;5030362;28;20176;-65
2022/06/21 08:27:16;;;;;;;22.48;9.98;;;;;;;25.01;27.53;99710.66;5016542;28;20059;-66
2022/06/21 08:29:42;;;;;;;;;;;;;;;25.05;27.63;99711.69;5047362;28;20056;-63
2022/06/21 08:32:35;;;;;;;24.67;9.93;;;;;;;25.02;27.42;99710.34;5046752;28;19979;-64
2022/06/21 08:35:08;;;;;;;22.38;9.82;;;;;;;25.04;27.00;99712.78;4984465;28;20276;-63
2022/06/21 08:37:44;;;;;;;27.30;11.27;;;;;;;25.04;27.25;99710.06;4973846;28;20026;-65
2022/06/21 08:40:54;;;;;;;24.33;10.13;;;;;;;25.03;27.35;99703.00;4974553;28;20042;-64
2022/06/21 08:43:20;;;;;;;24.05;9.30;;;;;;;25.01;27.29;99708.75;4974494;28;20045;-64
2022/06/21 08:46:05;;;;;;;16.35;7.50;;;;;;;25.02;27.17;99715.03;4974166;28;20487;-64
2022/06/21 08:48:58;;;;;;;21.92;9.35;;;;;;;25.03;26.97;99709.25;4988298;28;20164;-63
2022/06/21 08:51:36;;;;;;;22.83;8.87;;;;;;;25.04;26.51;99712.78;4990304;28;20094;-64
2022/06/21 08:54:26;;;;;;;23.65;9.45;;;;;;;25.02;26.81;99704.09;4974336;28;20110;-64
2022/06/21 08:57:13;;;;;;;19.35;8.07;;;;;;;25.03;26.75;99708.44;5013177;28;20092;-63
2022/06/21 08:59:41;;;;;;;22.27;9.40;;;;;;;25.03;26.84;99706.53;5012918;28;20592;-63
2022/06/21 09:02:44;;;;;;;23.08;8.30;;;;;;;25.03;26.59;99703.00;5013202;28;20056;-64
2022/06/21 09:05:22;;;;;;;23.25;8.65;;;;;;;25.06;26.78;99695.00;4973907;28;20066;-63
2022/06/21 09:08:26;;;;;;;20.13;8.65;;;;;;;25.06;26.26;99699.63;4957755;28;20114;-64
2022/06/21 09:11:15;;;;;;;21.80;8.55;;;;;;;25.08;26.46;99698.22;4941472;28;20040;-64
2022/06/21 09:14:06;;;;;;;20.65;8.57;;;;;;;25.08;26.47;99702.91;4974974;28;20556;-63
2022/06/21 09:17:01;;;;;;;17.50;7.68;;;;;;;25.09;26.46;99699.88;4973889;28;20145;-64
2022/06/21 09:19:45;;;;;;;;;;;;;;;25.16;26.40;99704.91;4969016;28;20047;-64
2022/06/21 09:22:36;;;;;;;21.38;9.30;;;;;;;25.11;26.45;99702.28;4973617;28;19945;-65
2022/06/21 09:25:28;;;;;;;23.10;9.48;;;;;;;25.12;26.28;99698.44;4973313;28;20047;-64
2022/06/21 09:28:35;;;;;;;22.15;9.40;;;;;;;25.14;26.31;99709.88;4958316;28;20046;-64
2022/06/21 09:31:08;;;;;;;25.10;10.18;;;;;;;25.10;26.40;99696.00;4900440;29;20487;-63
2022/06/21 09:33:48;;;;;;;23.17;9.53;;;;;;;25.10;26.44;99706.94;4900338;29;20032;-64
2022/06/21 09:36:32;;;;;;;30.02;10.23;;;;;;;25.04;26.60;99702.69;4916166;29;20036;-64
2022/06/21 09:39:24;;;;;;;26.08;10.43;;;;;;;25.07;26.54;99706.72;4916037;29;20040;-64
2022/06/21 09:41:58;;;;;;;24.30;9.50;;;;;;;25.07;26.63;99706.72;4882940;29;20109;-63
2022/06/21 09:44:42;;;;;;;23.88;9.50;;;;;;;25.06;26.51;99702.38;4881304;29;20036;-64
2022/06/21 09:47:49;;;;;;;22.83;10.15;;;;;;;25.08;26.37;99700.97;4955190;28;20074;-64
2022/06/21 09:50:30;;;;;;;21.17;9.35;;;;;;;25.07;26.13;99695.78;4972943;28;20043;-64
2022/06/21 09:53:41;;;;;;;23.58;8.30;;;;;;;25.06;26.30;99699.63;4957077;28;20504;-63
2022/06/21 09:56:15;;;;;;;19.73;8.48;;;;;;;25.06;26.13;99696.91;4959942;28;20524;-64
2022/06/21 09:58:51;;;;;;;;;;;;;;;25.12;26.19;99703.91;4973522;28;20038;-62
2022/06/21 10:01:38;;;;;;;28.75;9.45;;;;;;;25.08;26.10;99703.69;4973033;28;19949;-64
2022/06/21 10:04:28;;;;;;;22.88;10.23;;;;;;;25.06;26.23;99699.63;4949144;28;20058;-63
2022/06/21 10:07:02;;;;;;;22.60;9.80;;;;;;;25.05;26.10;99698.03;5011978;28;20147;-63
2022/06/21 10:09:46;;;;;;;20.08;8.45;;;;;;;25.10;25.78;99703.41;5011698;28;20034;-63
2022/06/21 10:12:43;;;;;;;16.02;5.70;;;;;;;25.11;25.52;99702.28;5016815;28;20108;-63
2022/06/21 10:15:28;;;;;;;18.63;7.45;;;;;;;25.13;25.59;99697.34;5030955;28;20038;-64
2022/06/21 10:17:59;;;;;;;;;;;;;;;25.17;25.50;99701.06;5032530;28;20029;-64
2022/06/21 10:20:51;;;;;;;16.33;6.22;;;;;;;25.18;25.63;99697.25;5031727;28;20406;-64
2022/06/21 10:23:44;;;;;;;16.52;6.97;;;;;;;25.19;25.95;99701.56;5014812;28;20030;-63
2022/06/21 10:26:17;;;;;;;13.05;6.00;;;;;;;25.20;25.30;99699.66;5031878;28;20037;-63
2022/06/21 10:28:49;;;;;;;15.63;7.25;;;;;;;25.18;25.46;99696.41;5031992;28;20033;-64
2022/06/21 10:31:15;;;;;;;15.32;6.95;;;;;;;25.21;25.66;99696.63;5015955;28;20155;-63
2022/06/21 10:34:05;;;;;;;24.17;9.02;;;;;;;25.20;25.90;99695.00;5062065;28;20078;-64
2022/06/21 10:37:08;;;;;;;19.83;8.15;;;;;;;25.22;25.91;99694.72;5073427;28;20448;-63
2022/06/21 10:39:59;;;;;;;17.10;7.53;;;;;;;25.22;25.72;99690.03;5072322;28;20036;-64
2022/06/21 10:45:20;;;;;;;19.60;7.70;;;;;;;25.23;25.73;99694.41;5073538;28;20048;-63
2022/06/21 10:48:07;;;;;;;16.23;6.80;;;;;;;25.23;25.78;99699.88;5073520;28;20039;-63
2022/06/21 10:50:56;;;;;;;19.42;7.68;;;;;;;25.26;25.71;99698.47;5073252;28;20033;-63
2022/06/21 10:53:28;;;;;;;14.30;6.70;;;;;;;25.26;25.61;99699.28;5071355;28;20044;-63
2022/06/21 11:02:50;;;;;;;20.02;8.32;;;;;;;25.30;26.02;99696.75;5072760;28;20052;-64
2022/06/21 11:05:31;;;;;;;21.08;9.25;;;;;;;25.27;26.00;99698.19;5030401;28;20041;-63
2022/06/21 11:08:28;;;;;;;21.17;8.90;;;;;;;25.27;25.68;99695.44;5015448;28;20232;-64
2022/06/21 11:11:07;;;;;;;18.63;8.98;;;;;;;25.29;25.66;99695.94;4971791;28;20093;-64
2022/06/21 11:14:01;;;;;;;21.27;9.18;;;;;;;25.26;25.58;99702.03;4957375;28;20185;-64
2022/06/21 11:17:20;;;;;;;25.23;10.98;;;;;;;25.29;25.71;99685.00;4952632;29;20051;-64
2022/06/21 11:20:06;;;;;;;27.95;11.43;;;;;;;25.26;25.87;99693.81;4914331;29;20044;-64
2022/06/21 11:23:05;;;;;;;29.52;11.90;;;;;;;25.31;25.77;99690.19;4936436;29;20485;-64
2022/06/21 11:26:11;;;;;;;25.27;10.30;;;;;;;25.30;25.71;99692.13;4914144;29;20369;-64
2022/06/21 11:28:51;;;;;;;26.85;10.00;;;;;;;25.29;25.80;99687.75;4918328;29;20044;-63
2022/06/21 11:31:38;;;;;;;25.50;9.48;;;;;;;25.22;25.40;99681.84;4918810;29;20095;-64
2022/06/21 11:34:09;;;;;;;17.67;6.90;;;;;;;25.26;25.72;99682.88;4915779;29;20028;-64
2022/06/21 11:36:40;;;;;;;25.83;9.57;;;;;;;25.24;25.53;99690.53;4914761;29;20047;-65
2022/06/21 11:39:34;;;;;;;23.40;9.18;;;;;;;25.25;25.81;99691.34;4915243;29;20419;-64
2022/06/21 11:42:05;;;;;;;18.17;7.57;;;;;;;25.19;25.76;99692.56;4921820;29;20036;-65
2022/06/21 11:44:34;;;;;;;11.55;5.53;;;;;;;25.25;25.51;99694.94;4933165;29;20072;-63
2022/06/21 11:47:40;;;;;;;30.33;12.80;;;;;;;25.28;25.66;99686.16;4937319;28;20119;-64
2022/06/21 11:50:06;;;;;;;12.27;6.15;;;;;;;25.25;25.94;99691.34;4934143;29;20377;-63
2022/06/21 11:52:54;;;;;;;15.68;7.03;;;;;;;25.26;25.73;99691.09;4933301;29;20093;-63
2022/06/21 11:55:24;;;;;;;23.77;6.35;;;;;;;25.29;26.11;99695.94;4931163;29;20051;-63
2022/06/21 11:58:11;;;;;;;15.88;7.20;;;;;;;25.28;25.88;99686.16;4918236;29;20099;-64
2022/06/21 12:00:57;;;;;;;14.18;5.97;;;;;;;25.32;25.92;99688.25;4918651;29;20091;-63
2022/06/21 12:04:01;;;;;;;11.20;5.20;;;;;;;25.34;25.97;99689.59;4963584;28;20469;-65
2022/06/21 12:06:34;;;;;;;13.18;5.03;;;;;;;25.34;25.85;99694.25;4932931;29;20510;-66
2022/06/21 12:09:07;;;;;;;11.75;5.72;;;;;;;25.36;25.77;99686.53;4933200;29;20036;-64
2022/06/21 12:11:54;;;;;;;13.73;6.35;;;;;;;25.36;25.82;99687.34;4951389;28;20044;-65
2022/06/21 12:14:34;;;;;;;16.33;6.18;;;;;;;25.36;26.05;99684.63;4955747;29;20506;-65
2022/06/21 12:17:21;;;;;;;15.57;6.57;;;;;;;25.39;26.17;99691.38;4956145;29;20074;-65
2022/06/21 12:19:50;;;;;;;13.05;5.30;;;;;;;25.37;26.04;99699.09;4971691;28;20043;-65
2022/06/21 12:22:35;;;;;;;12.50;5.63;;;;;;;25.40;25.83;99698.50;4971871;28;20035;-64
2022/06/21 12:25:01;;;;;;;17.05;6.22;;;;;;;25.39;26.07;99697.69;4960654;28;20055;-64
2022/06/21 12:27:27;;;;;;;13.00;5.30;;;;;;;25.44;25.91;99704.97;4974917;28;20038;-64
2022/06/21 12:29:57;;;;;;;12.57;6.28;;;;;;;25.46;25.86;99695.34;4975050;28;20358;-63
2022/06/21 12:32:22;;;;;;;12.55;5.63;;;;;;;25.46;25.72;99697.28;4943161;28;20050;-66
2022/06/21 12:35:01;;;;;;;10.75;5.40;;;;;;;25.43;26.05;99703.34;4942749;28;20425;-64
2022/06/21 12:37:38;;;;;;;15.43;6.03;;;;;;;25.44;26.25;99696.75;4959082;28;20047;-64
2022/06/21 12:40:29;;;;;;;8.95;4.90;;;;;;;25.48;25.99;99695.06;4959376;28;20026;-64
2022/06/21 12:42:55;;;;;;;12.15;6.00;;;;;;;25.45;25.78;99695.66;5001229;28;20508;-64
2022/06/21 12:45:23;;;;;;;12.07;5.50;;;;;;;25.45;25.72;99699.19;5075336;28;20114;-63
2022/06/21 12:48:17;;;;;;;10.70;4.90;;;;;;;25.48;25.60;99695.06;5075784;28;20025;-65
2022/06/21 12:50:45;;;;;;;10.25;4.78;;;;;;;25.52;25.73;99696.06;5075517;28;20033;-65
2022/06/21 12:53:14;;;;;;;15.57;6.50;;;;;;;25.50;25.53;99692.81;5074108;28;20027;-65
2022/06/21 12:55:39;;;;;;;18.30;8.18;;;;;;;25.51;25.84;99688.97;5075901;28;20141;-64
2022/06/21 12:58:31;;;;;;;17.98;7.35;;;;;;;25.55;25.41;99686.44;5075720;28;20405;-64
2022/06/21 13:00:58;;;;;;;15.38;7.78;;;;;;;25.54;25.33;99687.53;5074359;28;20082;-64
2022/06/21 13:03:39;;;;;;;43.47;15.88;;;;;;;25.54;25.76;99685.59;5074204;28;20028;-64
2022/06/21 13:06:23;;;;;;;22.40;10.55;;;;;;;25.45;25.69;99684.72;5075071;28;20033;-64
2022/06/21 13:09:01;;;;;;;44.05;16.15;;;;;;;25.49;25.67;99694.75;5075410;28;20044;-64